sensor_id;sensor_type;location;lat;lon;timestamp;P1;durP1;ratioP1;P2;durP2;ratioP2
66702;SDS011;60933;46.398;-63.798;2023-10-13T00:00:30;5.82;;;1.75;;
66702;SDS011;60933;46.398;-63.798;2023-10-13T00:03:00;2.50;;;1.30;;
66702;SDS011;60933;46.398;-63.798;2023-10-13T00:05:27;2.60;;;1.20;;
66702;SDS011;60933;46.398;-63.798;2023-10-13T00:07:56;4.30;;;1.67;;
66702;SDS011;60933;46.398;-63.798;2023-10-13T00:10:31;5.50;;;2.30;;
66702;SDS011;60933;46.398;-63.798;2023-10-13T00:13:01;3.10;;;1.52;;
66702;SDS011;60933;46.398;-63.798;2023-10-13T00:15:38;2.33;;;1.30;;
66702;SDS011;60933;46.398;-63.798;2023-10-13T00:21:03;2.45;;;2.25;;
66702;SDS011;60933;46.398;-63.798;2023-10-13T00:23:38;1.85;;;1.30;;
66702;SDS011;60933;46.398;-63.798;2023-10-13T00:26:20;2.13;;;0.98;;
66702;SDS011;60933;46.398;-63.798;2023-10-13T00:28:54;2.72;;;1.50;;
66702;SDS011;60933;46.398;-63.798;2023-10-13T00:31:36;1.83;;;1.60;;
66702;SDS011;60933;46.398;-63.798;2023-10-13T00:34:06;2.80;;;1.73;;
66702;SDS011;60933;46.398;-63.798;2023-10-13T00:36:45;2.53;;;1.50;;
66702;SDS011;60933;46.398;-63.798;2023-10-13T00:39:34;2.45;;;1.25;;
66702;SDS011;60933;46.398;-63.798;2023-10-13T00:42:09;4.88;;;1.40;;
66702;SDS011;60933;46.398;-63.798;2023-10-13T00:44:49;2.35;;;1.40;;
66702;SDS011;60933;46.398;-63.798;2023-10-13T00:47:19;1.70;;;1.38;;
66702;SDS011;60933;46.398;-63.798;2023-10-13T00:50:18;1.23;;;1.10;;
66702;SDS011;60933;46.398;-63.798;2023-10-13T00:52:45;1.27;;;0.80;;
66702;SDS011;60933;46.398;-63.798;2023-10-13T00:55:16;1.30;;;0.80;;
66702;SDS011;60933;46.398;-63.798;2023-10-13T01:00:22;1.10;;;1.00;;
66702;SDS011;60933;46.398;-63.798;2023-10-13T01:02:54;1.30;;;0.90;;
66702;SDS011;60933;46.398;-63.798;2023-10-13T01:05:21;1.77;;;1.02;;
66702;SDS011;60933;46.398;-63.798;2023-10-13T01:07:49;1.40;;;1.00;;
66702;SDS011;60933;46.398;-63.798;2023-10-13T01:10:21;2.05;;;1.10;;
66702;SDS011;60933;46.398;-63.798;2023-10-13T01:12:57;2.03;;;0.80;;
66702;SDS011;60933;46.398;-63.798;2023-10-13T01:15:27;2.00;;;1.13;;
66702;SDS011;60933;46.398;-63.798;2023-10-13T01:18:08;1.42;;;1.00;;
66702;SDS011;60933;46.398;-63.798;2023-10-13T01:20:39;1.40;;;1.10;;
66702;SDS011;60933;46.398;-63.798;2023-10-13T01:23:13;1.42;;;0.98;;
66702;SDS011;60933;46.398;-63.798;2023-10-13T01:25:50;2.40;;;1.08;;
66702;SDS011;60933;46.398;-63.798;2023-10-13T01:28:16;1.45;;;0.90;;
66702;SDS011;60933;46.398;-63.798;2023-10-13T01:30:43;2.15;;;1.20;;
66702;SDS011;60933;46.398;-63.798;2023-10-13T01:33:17;1.13;;;0.93;;
66702;SDS011;60933;46.398;-63.798;2023-10-13T01:35:52;2.33;;;1.63;;
66702;SDS011;60933;46.398;-63.798;2023-10-13T01:38:20;1.80;;;1.05;;
66702;SDS011;60933;46.398;-63.798;2023-10-13T01:40:46;1.92;;;1.20;;
66702;SDS011;60933;46.398;-63.798;2023-10-13T01:43:16;2.35;;;1.20;;
66702;SDS011;60933;46.398;-63.798;2023-10-13T01:45:43;1.60;;;1.30;;
66702;SDS011;60933;46.398;-63.798;2023-10-13T01:48:12;1.58;;;1.27;;
66702;SDS011;60933;46.398;-63.798;2023-10-13T01:50:44;1.90;;;1.17;;
66702;SDS011;60933;46.398;-63.798;2023-10-13T01:53:20;2.05;;;1.15;;
66702;SDS011;60933;46.398;-63.798;2023-10-13T01:55:48;1.30;;;1.10;;
66702;SDS011;60933;46.398;-63.798;2023-10-13T01:58:15;2.00;;;1.10;;
66702;SDS011;60933;46.398;-63.798;2023-10-13T02:00:43;1.55;;;1.00;;
66702;SDS011;60933;46.398;-63.798;2023-10-13T02:03:11;2.72;;;1.05;;
66702;SDS011;60933;46.398;-63.798;2023-10-13T02:05:43;3.03;;;1.33;;
66702;SDS011;60933;46.398;-63.798;2023-10-13T02:08:17;3.85;;;1.98;;
66702;SDS011;60933;46.398;-63.798;2023-10-13T02:10:53;4.70;;;1.27;;
66702;SDS011;60933;46.398;-63.798;2023-10-13T02:13:20;2.22;;;0.85;;
66702;SDS011;60933;46.398;-63.798;2023-10-13T02:15:48;1.95;;;1.00;;
66702;SDS011;60933;46.398;-63.798;2023-10-13T02:18:19;2.65;;;0.85;;
66702;SDS011;60933;46.398;-63.798;2023-10-13T02:20:55;7.22;;;1.40;;
66702;SDS011;60933;46.398;-63.798;2023-10-13T02:23:29;3.38;;;1.05;;
66702;SDS011;60933;46.398;-63.798;2023-10-13T02:25:59;5.50;;;0.93;;
66702;SDS011;60933;46.398;-63.798;2023-10-13T02:28:29;3.88;;;0.70;;
66702;SDS011;60933;46.398;-63.798;2023-10-13T02:31:04;2.35;;;1.13;;
66702;SDS011;60933;46.398;-63.798;2023-10-13T02:33:32;3.80;;;0.80;;
66702;SDS011;60933;46.398;-63.798;2023-10-13T02:36:00;2.38;;;0.85;;
66702;SDS011;60933;46.398;-63.798;2023-10-13T02:38:31;3.67;;;1.00;;
66702;SDS011;60933;46.398;-63.798;2023-10-13T02:41:10;5.22;;;1.23;;
66702;SDS011;60933;46.398;-63.798;2023-10-13T02:43:45;3.20;;;0.90;;
66702;SDS011;60933;46.398;-63.798;2023-10-13T02:46:11;2.83;;;0.95;;
66702;SDS011;60933;46.398;-63.798;2023-10-13T02:48:41;4.85;;;0.98;;
66702;SDS011;60933;46.398;-63.798;2023-10-13T02:51:09;1.45;;;0.60;;
66702;SDS011;60933;46.398;-63.798;2023-10-13T02:53:42;3.92;;;1.05;;
66702;SDS011;60933;46.398;-63.798;2023-10-13T02:56:12;1.73;;;0.70;;
66702;SDS011;60933;46.398;-63.798;2023-10-13T02:58:39;1.98;;;0.60;;
66702;SDS011;60933;46.398;-63.798;2023-10-13T03:01:11;2.15;;;0.75;;
66702;SDS011;60933;46.398;-63.798;2023-10-13T03:03:44;1.30;;;0.70;;
66702;SDS011;60933;46.398;-63.798;2023-10-13T03:06:15;2.50;;;0.90;;
66702;SDS011;60933;46.398;-63.798;2023-10-13T03:08:42;2.15;;;1.00;;
66702;SDS011;60933;46.398;-63.798;2023-10-13T03:11:09;2.08;;;1.30;;
66702;SDS011;60933;46.398;-63.798;2023-10-13T03:13:36;1.45;;;0.95;;
66702;SDS011;60933;46.398;-63.798;2023-10-13T03:16:12;1.27;;;0.90;;
66702;SDS011;60933;46.398;-63.798;2023-10-13T03:18:43;2.88;;;1.65;;
66702;SDS011;60933;46.398;-63.798;2023-10-13T03:21:22;2.58;;;0.95;;
66702;SDS011;60933;46.398;-63.798;2023-10-13T03:23:59;1.30;;;0.90;;
66702;SDS011;60933;46.398;-63.798;2023-10-13T03:26:33;1.40;;;0.90;;
66702;SDS011;60933;46.398;-63.798;2023-10-13T03:29:09;1.40;;;0.80;;
66702;SDS011;60933;46.398;-63.798;2023-10-13T03:31:39;0.77;;;0.75;;
66702;SDS011;60933;46.398;-63.798;2023-10-13T03:34:05;2.17;;;1.38;;
66702;SDS011;60933;46.398;-63.798;2023-10-13T03:36:37;1.10;;;0.98;;
66702;SDS011;60933;46.398;-63.798;2023-10-13T03:41:53;1.85;;;0.93;;
66702;SDS011;60933;46.398;-63.798;2023-10-13T03:44:21;1.30;;;0.85;;
66702;SDS011;60933;46.398;-63.798;2023-10-13T03:46:48;1.13;;;0.85;;
66702;SDS011;60933;46.398;-63.798;2023-10-13T03:49:15;1.85;;;0.90;;
66702;SDS011;60933;46.398;-63.798;2023-10-13T03:51:46;1.00;;;0.73;;
66702;SDS011;60933;46.398;-63.798;2023-10-13T03:54:14;1.48;;;1.00;;
66702;SDS011;60933;46.398;-63.798;2023-10-13T03:56:42;1.25;;;1.15;;
66702;SDS011;60933;46.398;-63.798;2023-10-13T03:59:17;1.17;;;0.60;;
66702;SDS011;60933;46.398;-63.798;2023-10-13T04:01:44;1.00;;;0.60;;
66702;SDS011;60933;46.398;-63.798;2023-10-13T04:04:13;1.05;;;0.60;;
66702;SDS011;60933;46.398;-63.798;2023-10-13T04:07:15;0.80;;;0.60;;
66702;SDS011;60933;46.398;-63.798;2023-10-13T04:10:01;1.13;;;0.80;;
66702;SDS011;60933;46.398;-63.798;2023-10-13T04:12:46;0.70;;;0.65;;
66702;SDS011;60933;46.398;-63.798;2023-10-13T04:18:08;2.03;;;0.80;;
66702;SDS011;60933;46.398;-63.798;2023-10-13T04:20:59;1.20;;;0.80;;
66702;SDS011;60933;46.398;-63.798;2023-10-13T04:23:44;1.30;;;0.95;;
66702;SDS011;60933;46.398;-63.798;2023-10-13T04:26:28;1.02;;;0.70;;
66702;SDS011;60933;46.398;-63.798;2023-10-13T04:29:05;1.13;;;0.57;;
66702;SDS011;60933;46.398;-63.798;2023-10-13T04:31:36;1.20;;;0.80;;
66702;SDS011;60933;46.398;-63.798;2023-10-13T04:34:24;0.63;;;0.50;;
66702;SDS011;60933;46.398;-63.798;2023-10-13T04:37:00;1.75;;;0.98;;
66702;SDS011;60933;46.398;-63.798;2023-10-13T04:39:44;1.30;;;0.88;;
66702;SDS011;60933;46.398;-63.798;2023-10-13T04:42:10;1.20;;;0.80;;
66702;SDS011;60933;46.398;-63.798;2023-10-13T04:44:38;1.58;;;1.30;;
66702;SDS011;60933;46.398;-63.798;2023-10-13T04:47:13;1.48;;;0.80;;
66702;SDS011;60933;46.398;-63.798;2023-10-13T04:49:48;0.80;;;0.65;;
66702;SDS011;60933;46.398;-63.798;2023-10-13T04:52:15;0.63;;;0.52;;
66702;SDS011;60933;46.398;-63.798;2023-10-13T04:55:00;1.33;;;1.23;;
66702;SDS011;60933;46.398;-63.798;2023-10-13T04:57:42;0.80;;;0.70;;
66702;SDS011;60933;46.398;-63.798;2023-10-13T05:00:12;1.48;;;0.82;;
66702;SDS011;60933;46.398;-63.798;2023-10-13T05:02:45;1.00;;;0.77;;
66702;SDS011;60933;46.398;-63.798;2023-10-13T05:05:30;1.45;;;1.35;;
66702;SDS011;60933;46.398;-63.798;2023-10-13T05:08:15;1.10;;;0.73;;
66702;SDS011;60933;46.398;-63.798;2023-10-13T05:11:03;2.03;;;1.25;;
66702;SDS011;60933;46.398;-63.798;2023-10-13T05:13:48;1.45;;;0.90;;
66702;SDS011;60933;46.398;-63.798;2023-10-13T05:16:33;2.45;;;1.10;;
66702;SDS011;60933;46.398;-63.798;2023-10-13T05:22:01;1.35;;;0.80;;
66702;SDS011;60933;46.398;-63.798;2023-10-13T05:24:45;0.88;;;0.85;;
66702;SDS011;60933;46.398;-63.798;2023-10-13T05:30:14;1.42;;;1.33;;
66702;SDS011;60933;46.398;-63.798;2023-10-13T05:32:59;1.25;;;0.60;;
66702;SDS011;60933;46.398;-63.798;2023-10-13T05:38:27;1.00;;;0.70;;
66702;SDS011;60933;46.398;-63.798;2023-10-13T05:41:12;1.27;;;0.80;;
66702;SDS011;60933;46.398;-63.798;2023-10-13T05:43:56;1.75;;;1.65;;
66702;SDS011;60933;46.398;-63.798;2023-10-13T05:49:35;0.75;;;0.70;;
66702;SDS011;60933;46.398;-63.798;2023-10-13T05:52:15;1.80;;;0.90;;
66702;SDS011;60933;46.398;-63.798;2023-10-13T05:54:46;1.27;;;0.88;;
66702;SDS011;60933;46.398;-63.798;2023-10-13T05:57:30;1.05;;;0.90;;
66702;SDS011;60933;46.398;-63.798;2023-10-13T06:00:15;1.20;;;1.00;;
66702;SDS011;60933;46.398;-63.798;2023-10-13T06:03:00;1.88;;;1.13;;
66702;SDS011;60933;46.398;-63.798;2023-10-13T06:08:28;1.40;;;1.30;;
66702;SDS011;60933;46.398;-63.798;2023-10-13T06:13:57;1.70;;;1.58;;
66702;SDS011;60933;46.398;-63.798;2023-10-13T06:16:41;1.30;;;1.13;;
66702;SDS011;60933;46.398;-63.798;2023-10-13T06:19:26;1.60;;;0.95;;
66702;SDS011;60933;46.398;-63.798;2023-10-13T06:22:10;1.48;;;1.00;;
66702;SDS011;60933;46.398;-63.798;2023-10-13T06:24:55;1.55;;;1.25;;
66702;SDS011;60933;46.398;-63.798;2023-10-13T06:27:39;2.13;;;1.65;;
66702;SDS011;60933;46.398;-63.798;2023-10-13T06:32:50;1.02;;;0.70;;
66702;SDS011;60933;46.398;-63.798;2023-10-13T06:35:16;1.77;;;0.90;;
66702;SDS011;60933;46.398;-63.798;2023-10-13T06:37:49;1.02;;;0.70;;
66702;SDS011;60933;46.398;-63.798;2023-10-13T06:40:18;1.15;;;0.90;;
66702;SDS011;60933;46.398;-63.798;2023-10-13T06:42:51;1.48;;;0.80;;
66702;SDS011;60933;46.398;-63.798;2023-10-13T06:45:36;1.33;;;1.10;;
66702;SDS011;60933;46.398;-63.798;2023-10-13T06:48:03;0.90;;;0.80;;
66702;SDS011;60933;46.398;-63.798;2023-10-13T06:50:30;1.48;;;1.00;;
66702;SDS011;60933;46.398;-63.798;2023-10-13T06:53:04;1.90;;;1.20;;
66702;SDS011;60933;46.398;-63.798;2023-10-13T06:55:30;0.68;;;0.65;;
66702;SDS011;60933;46.398;-63.798;2023-10-13T06:58:07;1.05;;;0.98;;
66702;SDS011;60933;46.398;-63.798;2023-10-13T07:00:41;1.65;;;0.85;;
66702;SDS011;60933;46.398;-63.798;2023-10-13T07:03:18;2.03;;;0.70;;
66702;SDS011;60933;46.398;-63.798;2023-10-13T07:05:45;1.73;;;0.77;;
66702;SDS011;60933;46.398;-63.798;2023-10-13T07:08:14;1.33;;;0.73;;
66702;SDS011;60933;46.398;-63.798;2023-10-13T07:10:47;2.00;;;1.58;;
66702;SDS011;60933;46.398;-63.798;2023-10-13T07:13:26;1.23;;;1.02;;
66702;SDS011;60933;46.398;-63.798;2023-10-13T07:15:53;1.00;;;0.90;;
66702;SDS011;60933;46.398;-63.798;2023-10-13T07:18:25;2.20;;;1.40;;
66702;SDS011;60933;46.398;-63.798;2023-10-13T07:20:51;1.60;;;1.45;;
66702;SDS011;60933;46.398;-63.798;2023-10-13T07:23:22;1.58;;;1.10;;
66702;SDS011;60933;46.398;-63.798;2023-10-13T07:25:56;2.50;;;1.90;;
66702;SDS011;60933;46.398;-63.798;2023-10-13T07:28:29;4.35;;;2.90;;
66702;SDS011;60933;46.398;-63.798;2023-10-13T07:31:17;2.97;;;2.20;;
66702;SDS011;60933;46.398;-63.798;2023-10-13T07:33:46;2.75;;;2.13;;
66702;SDS011;60933;46.398;-63.798;2023-10-13T07:36:12;2.28;;;1.90;;
66702;SDS011;60933;46.398;-63.798;2023-10-13T07:38:58;3.03;;;1.58;;
66702;SDS011;60933;46.398;-63.798;2023-10-13T07:41:50;2.15;;;1.70;;
66702;SDS011;60933;46.398;-63.798;2023-10-13T07:44:21;2.30;;;1.40;;
66702;SDS011;60933;46.398;-63.798;2023-10-13T07:46:51;1.05;;;0.80;;
66702;SDS011;60933;46.398;-63.798;2023-10-13T07:49:30;0.90;;;0.80;;
66702;SDS011;60933;46.398;-63.798;2023-10-13T07:51:58;1.88;;;1.10;;
66702;SDS011;60933;46.398;-63.798;2023-10-13T07:54:53;2.75;;;1.40;;
66702;SDS011;60933;46.398;-63.798;2023-10-13T07:57:39;1.10;;;0.82;;
66702;SDS011;60933;46.398;-63.798;2023-10-13T08:00:22;1.70;;;1.00;;
66702;SDS011;60933;46.398;-63.798;2023-10-13T08:03:08;1.70;;;0.90;;
66702;SDS011;60933;46.398;-63.798;2023-10-13T08:05:57;1.48;;;1.10;;
66702;SDS011;60933;46.398;-63.798;2023-10-13T08:08:44;1.00;;;0.75;;
66702;SDS011;60933;46.398;-63.798;2023-10-13T08:11:15;1.00;;;0.68;;
66702;SDS011;60933;46.398;-63.798;2023-10-13T08:13:52;1.42;;;1.00;;
66702;SDS011;60933;46.398;-63.798;2023-10-13T08:16:33;2.70;;;2.25;;
66702;SDS011;60933;46.398;-63.798;2023-10-13T08:19:19;3.53;;;1.92;;
66702;SDS011;60933;46.398;-63.798;2023-10-13T08:21:52;3.58;;;2.70;;
66702;SDS011;60933;46.398;-63.798;2023-10-13T08:26:54;1.55;;;1.10;;
66702;SDS011;60933;46.398;-63.798;2023-10-13T08:29:40;1.65;;;0.98;;
66702;SDS011;60933;46.398;-63.798;2023-10-13T08:34:58;0.93;;;0.73;;
66702;SDS011;60933;46.398;-63.798;2023-10-13T08:37:29;1.85;;;1.05;;
66702;SDS011;60933;46.398;-63.798;2023-10-13T08:40:16;1.35;;;0.85;;
66702;SDS011;60933;46.398;-63.798;2023-10-13T08:43:05;1.15;;;0.65;;
66702;SDS011;60933;46.398;-63.798;2023-10-13T08:45:34;2.05;;;1.27;;
66702;SDS011;60933;46.398;-63.798;2023-10-13T08:48:02;2.13;;;1.55;;
66702;SDS011;60933;46.398;-63.798;2023-10-13T08:53:21;1.42;;;0.85;;
66702;SDS011;60933;46.398;-63.798;2023-10-13T08:55:58;1.42;;;0.75;;
66702;SDS011;60933;46.398;-63.798;2023-10-13T08:58:41;1.80;;;1.55;;
66702;SDS011;60933;46.398;-63.798;2023-10-13T09:04:07;1.45;;;1.10;;
66702;SDS011;60933;46.398;-63.798;2023-10-13T09:09:49;1.20;;;0.90;;
66702;SDS011;60933;46.398;-63.798;2023-10-13T09:12:21;1.60;;;0.93;;
66702;SDS011;60933;46.398;-63.798;2023-10-13T09:15:12;1.83;;;0.80;;
66702;SDS011;60933;46.398;-63.798;2023-10-13T09:17:41;1.10;;;1.00;;
66702;SDS011;60933;46.398;-63.798;2023-10-13T09:20:31;2.53;;;1.42;;
66702;SDS011;60933;46.398;-63.798;2023-10-13T09:23:09;1.67;;;1.30;;
66702;SDS011;60933;46.398;-63.798;2023-10-13T09:25:38;1.60;;;1.00;;
66702;SDS011;60933;46.398;-63.798;2023-10-13T09:28:28;1.02;;;0.88;;
66702;SDS011;60933;46.398;-63.798;2023-10-13T09:30:56;1.67;;;1.50;;
66702;SDS011;60933;46.398;-63.798;2023-10-13T09:33:25;1.80;;;1.23;;
66702;SDS011;60933;46.398;-63.798;2023-10-13T09:36:02;2.42;;;1.60;;
66702;SDS011;60933;46.398;-63.798;2023-10-13T09:38:33;1.60;;;1.15;;
66702;SDS011;60933;46.398;-63.798;2023-10-13T09:41:04;1.38;;;0.93;;
66702;SDS011;60933;46.398;-63.798;2023-10-13T09:43:52;1.75;;;1.30;;
66702;SDS011;60933;46.398;-63.798;2023-10-13T09:46:23;1.27;;;1.00;;
66702;SDS011;60933;46.398;-63.798;2023-10-13T09:49:03;1.63;;;1.10;;
66702;SDS011;60933;46.398;-63.798;2023-10-13T09:51:48;2.88;;;1.10;;
66702;SDS011;60933;46.398;-63.798;2023-10-13T09:54:18;1.20;;;1.08;;
66702;SDS011;60933;46.398;-63.798;2023-10-13T09:56:56;1.85;;;1.25;;
66702;SDS011;60933;46.398;-63.798;2023-10-13T09:59:33;1.55;;;0.90;;
66702;SDS011;60933;46.398;-63.798;2023-10-13T10:02:06;0.90;;;0.80;;
66702;SDS011;60933;46.398;-63.798;2023-10-13T10:04:35;2.08;;;1.42;;
66702;SDS011;60933;46.398;-63.798;2023-10-13T10:07:26;1.90;;;1.55;;
66702;SDS011;60933;46.398;-63.798;2023-10-13T10:09:58;1.92;;;1.30;;
66702;SDS011;60933;46.398;-63.798;2023-10-13T10:12:48;1.25;;;1.00;;
66702;SDS011;60933;46.398;-63.798;2023-10-13T10:15:31;3.10;;;1.45;;
66702;SDS011;60933;46.398;-63.798;2023-10-13T10:18:01;1.50;;;1.00;;
66702;SDS011;60933;46.398;-63.798;2023-10-13T10:20:32;2.88;;;1.42;;
66702;SDS011;60933;46.398;-63.798;2023-10-13T10:23:26;1.33;;;1.23;;
66702;SDS011;60933;46.398;-63.798;2023-10-13T10:25:56;1.58;;;1.10;;
66702;SDS011;60933;46.398;-63.798;2023-10-13T10:28:38;1.23;;;0.80;;
66702;SDS011;60933;46.398;-63.798;2023-10-13T10:31:07;2.65;;;0.90;;
66702;SDS011;60933;46.398;-63.798;2023-10-13T10:33:42;1.05;;;0.90;;
66702;SDS011;60933;46.398;-63.798;2023-10-13T10:36:09;1.27;;;0.93;;
66702;SDS011;60933;46.398;-63.798;2023-10-13T10:38:55;1.70;;;1.15;;
66702;SDS011;60933;46.398;-63.798;2023-10-13T10:41:25;1.40;;;1.05;;
66702;SDS011;60933;46.398;-63.798;2023-10-13T10:44:15;1.73;;;1.02;;
66702;SDS011;60933;46.398;-63.798;2023-10-13T10:46:42;1.85;;;1.00;;
66702;SDS011;60933;46.398;-63.798;2023-10-13T10:49:20;1.65;;;1.00;;
66702;SDS011;60933;46.398;-63.798;2023-10-13T10:52:01;1.50;;;0.98;;
66702;SDS011;60933;46.398;-63.798;2023-10-13T10:54:30;1.80;;;1.23;;
66702;SDS011;60933;46.398;-63.798;2023-10-13T10:56:59;1.45;;;1.02;;
66702;SDS011;60933;46.398;-63.798;2023-10-13T10:59:42;1.15;;;0.93;;
66702;SDS011;60933;46.398;-63.798;2023-10-13T11:02:10;1.27;;;1.17;;
66702;SDS011;60933;46.398;-63.798;2023-10-13T11:04:40;1.50;;;1.30;;
66702;SDS011;60933;46.398;-63.798;2023-10-13T11:07:22;1.65;;;1.33;;
66702;SDS011;60933;46.398;-63.798;2023-10-13T11:09:49;2.60;;;1.38;;
66702;SDS011;60933;46.398;-63.798;2023-10-13T11:12:18;2.22;;;1.55;;
66702;SDS011;60933;46.398;-63.798;2023-10-13T11:15:07;2.13;;;1.80;;
66702;SDS011;60933;46.398;-63.798;2023-10-13T11:17:51;3.97;;;1.80;;
66702;SDS011;60933;46.398;-63.798;2023-10-13T11:20:20;5.22;;;3.25;;
66702;SDS011;60933;46.398;-63.798;2023-10-13T11:23:00;2.53;;;2.08;;
66702;SDS011;60933;46.398;-63.798;2023-10-13T11:25:30;4.10;;;2.30;;
66702;SDS011;60933;46.398;-63.798;2023-10-13T11:28:12;3.35;;;1.88;;
66702;SDS011;60933;46.398;-63.798;2023-10-13T11:30:46;2.70;;;2.45;;
66702;SDS011;60933;46.398;-63.798;2023-10-13T11:33:16;2.72;;;2.08;;
66702;SDS011;60933;46.398;-63.798;2023-10-13T11:35:44;2.33;;;2.00;;
66702;SDS011;60933;46.398;-63.798;2023-10-13T11:38:23;2.80;;;2.22;;
66702;SDS011;60933;46.398;-63.798;2023-10-13T11:40:52;3.95;;;2.28;;
66702;SDS011;60933;46.398;-63.798;2023-10-13T11:43:38;2.25;;;2.00;;
66702;SDS011;60933;46.398;-63.798;2023-10-13T11:46:13;2.70;;;2.50;;
66702;SDS011;60933;46.398;-63.798;2023-10-13T11:49:09;4.55;;;2.38;;
66702;SDS011;60933;46.398;-63.798;2023-10-13T11:51:39;3.38;;;2.05;;
66702;SDS011;60933;46.398;-63.798;2023-10-13T11:54:10;2.03;;;1.83;;
66702;SDS011;60933;46.398;-63.798;2023-10-13T11:56:37;2.80;;;2.10;;
66702;SDS011;60933;46.398;-63.798;2023-10-13T11:59:04;2.85;;;2.65;;
66702;SDS011;60933;46.398;-63.798;2023-10-13T12:01:31;4.00;;;2.72;;
66702;SDS011;60933;46.398;-63.798;2023-10-13T12:04:16;3.88;;;2.10;;
66702;SDS011;60933;46.398;-63.798;2023-10-13T12:06:59;4.47;;;2.30;;
66702;SDS011;60933;46.398;-63.798;2023-10-13T12:09:44;4.35;;;2.15;;
66702;SDS011;60933;46.398;-63.798;2023-10-13T12:12:26;3.22;;;1.90;;
66702;SDS011;60933;46.398;-63.798;2023-10-13T12:14:53;3.47;;;1.75;;
66702;SDS011;60933;46.398;-63.798;2023-10-13T12:17:24;2.30;;;1.83;;
66702;SDS011;60933;46.398;-63.798;2023-10-13T12:20:00;2.15;;;1.63;;
66702;SDS011;60933;46.398;-63.798;2023-10-13T12:22:31;2.53;;;1.95;;
66702;SDS011;60933;46.398;-63.798;2023-10-13T12:25:16;2.22;;;1.67;;
66702;SDS011;60933;46.398;-63.798;2023-10-13T12:27:57;5.47;;;2.63;;
66702;SDS011;60933;46.398;-63.798;2023-10-13T12:30:38;2.65;;;2.20;;
66702;SDS011;60933;46.398;-63.798;2023-10-13T12:33:14;2.80;;;1.80;;
66702;SDS011;60933;46.398;-63.798;2023-10-13T12:35:50;4.57;;;2.15;;
66702;SDS011;60933;46.398;-63.798;2023-10-13T12:38:39;2.65;;;2.08;;
66702;SDS011;60933;46.398;-63.798;2023-10-13T12:41:14;3.80;;;2.03;;
66702;SDS011;60933;46.398;-63.798;2023-10-13T12:43:59;2.40;;;1.88;;
66702;SDS011;60933;46.398;-63.798;2023-10-13T12:46:44;3.17;;;2.22;;
66702;SDS011;60933;46.398;-63.798;2023-10-13T12:52:13;3.38;;;1.92;;
66702;SDS011;60933;46.398;-63.798;2023-10-13T12:54:47;3.63;;;2.60;;
66702;SDS011;60933;46.398;-63.798;2023-10-13T12:57:20;4.75;;;2.97;;
66702;SDS011;60933;46.398;-63.798;2023-10-13T12:59:50;3.05;;;2.08;;
66702;SDS011;60933;46.398;-63.798;2023-10-13T13:02:24;4.05;;;2.22;;
66702;SDS011;60933;46.398;-63.798;2023-10-13T13:04:51;3.75;;;2.50;;
66702;SDS011;60933;46.398;-63.798;2023-10-13T13:07:47;3.63;;;2.08;;
66702;SDS011;60933;46.398;-63.798;2023-10-13T13:10:18;3.42;;;2.20;;
66702;SDS011;60933;46.398;-63.798;2023-10-13T13:12:44;3.67;;;2.13;;
66702;SDS011;60933;46.398;-63.798;2023-10-13T13:15:10;3.03;;;2.13;;
66702;SDS011;60933;46.398;-63.798;2023-10-13T13:17:40;3.92;;;2.30;;
66702;SDS011;60933;46.398;-63.798;2023-10-13T13:20:06;2.85;;;2.10;;
66702;SDS011;60933;46.398;-63.798;2023-10-13T13:22:39;5.13;;;3.00;;
66702;SDS011;60933;46.398;-63.798;2023-10-13T13:25:06;3.88;;;2.33;;
66702;SDS011;60933;46.398;-63.798;2023-10-13T13:27:33;3.05;;;2.35;;
66702;SDS011;60933;46.398;-63.798;2023-10-13T13:30:01;4.05;;;3.70;;
66702;SDS011;60933;46.398;-63.798;2023-10-13T13:32:38;3.20;;;2.17;;
66702;SDS011;60933;46.398;-63.798;2023-10-13T13:35:06;5.30;;;2.90;;
66702;SDS011;60933;46.398;-63.798;2023-10-13T13:37:34;5.57;;;3.00;;
66702;SDS011;60933;46.398;-63.798;2023-10-13T13:40:05;3.42;;;2.97;;
66702;SDS011;60933;46.398;-63.798;2023-10-13T13:42:43;5.40;;;3.17;;
66702;SDS011;60933;46.398;-63.798;2023-10-13T13:45:17;4.53;;;3.40;;
66702;SDS011;60933;46.398;-63.798;2023-10-13T13:47:48;5.13;;;3.22;;
66702;SDS011;60933;46.398;-63.798;2023-10-13T13:50:27;3.25;;;2.70;;
66702;SDS011;60933;46.398;-63.798;2023-10-13T13:52:54;3.30;;;2.70;;
66702;SDS011;60933;46.398;-63.798;2023-10-13T13:55:25;4.07;;;2.80;;
66702;SDS011;60933;46.398;-63.798;2023-10-13T13:57:57;4.75;;;2.80;;
66702;SDS011;60933;46.398;-63.798;2023-10-13T14:00:23;4.80;;;3.10;;
66702;SDS011;60933;46.398;-63.798;2023-10-13T14:03:13;5.13;;;3.20;;
66702;SDS011;60933;46.398;-63.798;2023-10-13T14:05:58;5.22;;;2.95;;
66702;SDS011;60933;46.398;-63.798;2023-10-13T14:08:25;3.80;;;2.78;;
66702;SDS011;60933;46.398;-63.798;2023-10-13T14:10:53;4.22;;;3.15;;
66702;SDS011;60933;46.398;-63.798;2023-10-13T14:13:37;5.10;;;2.10;;
66702;SDS011;60933;46.398;-63.798;2023-10-13T14:16:14;2.20;;;1.55;;
66702;SDS011;60933;46.398;-63.798;2023-10-13T14:18:42;2.88;;;1.73;;
66702;SDS011;60933;46.398;-63.798;2023-10-13T14:21:17;2.80;;;1.20;;
66702;SDS011;60933;46.398;-63.798;2023-10-13T14:23:47;2.55;;;1.20;;
66702;SDS011;60933;46.398;-63.798;2023-10-13T14:26:15;2.40;;;1.50;;
66702;SDS011;60933;46.398;-63.798;2023-10-13T14:28:54;2.15;;;1.20;;
66702;SDS011;60933;46.398;-63.798;2023-10-13T14:31:30;1.40;;;1.00;;
66702;SDS011;60933;46.398;-63.798;2023-10-13T14:33:57;1.83;;;1.55;;
66702;SDS011;60933;46.398;-63.798;2023-10-13T14:36:23;3.83;;;0.95;;
66702;SDS011;60933;46.398;-63.798;2023-10-13T14:38:54;2.13;;;1.35;;
66702;SDS011;60933;46.398;-63.798;2023-10-13T14:41:21;1.85;;;0.90;;
66702;SDS011;60933;46.398;-63.798;2023-10-13T14:43:47;1.52;;;1.20;;
66702;SDS011;60933;46.398;-63.798;2023-10-13T14:46:14;2.92;;;0.98;;
66702;SDS011;60933;46.398;-63.798;2023-10-13T14:48:48;1.67;;;0.73;;
66702;SDS011;60933;46.398;-63.798;2023-10-13T14:51:18;1.23;;;0.90;;
66702;SDS011;60933;46.398;-63.798;2023-10-13T14:53:45;2.92;;;0.70;;
66702;SDS011;60933;46.398;-63.798;2023-10-13T14:56:15;1.17;;;0.60;;
66702;SDS011;60933;46.398;-63.798;2023-10-13T14:58:43;2.40;;;1.42;;
66702;SDS011;60933;46.398;-63.798;2023-10-13T15:01:13;1.33;;;0.52;;
66702;SDS011;60933;46.398;-63.798;2023-10-13T15:03:43;1.13;;;0.73;;
66702;SDS011;60933;46.398;-63.798;2023-10-13T15:06:19;1.27;;;0.93;;
66702;SDS011;60933;46.398;-63.798;2023-10-13T15:08:50;1.38;;;0.60;;
66702;SDS011;60933;46.398;-63.798;2023-10-13T15:11:20;0.82;;;0.55;;
66702;SDS011;60933;46.398;-63.798;2023-10-13T15:13:46;1.38;;;0.75;;
66702;SDS011;60933;46.398;-63.798;2023-10-13T15:16:17;1.77;;;0.60;;
66702;SDS011;60933;46.398;-63.798;2023-10-13T15:18:49;0.95;;;0.70;;
66702;SDS011;60933;46.398;-63.798;2023-10-13T15:24:05;0.82;;;0.60;;
66702;SDS011;60933;46.398;-63.798;2023-10-13T15:26:51;2.10;;;0.95;;
66702;SDS011;60933;46.398;-63.798;2023-10-13T15:29:22;1.77;;;0.70;;
66702;SDS011;60933;46.398;-63.798;2023-10-13T15:31:51;0.90;;;0.60;;
66702;SDS011;60933;46.398;-63.798;2023-10-13T15:36:51;0.98;;;0.63;;
66702;SDS011;60933;46.398;-63.798;2023-10-13T15:39:17;2.95;;;0.75;;
66702;SDS011;60933;46.398;-63.798;2023-10-13T15:41:51;1.05;;;0.50;;
66702;SDS011;60933;46.398;-63.798;2023-10-13T15:44:18;1.23;;;0.60;;
66702;SDS011;60933;46.398;-63.798;2023-10-13T15:49:19;1.98;;;0.68;;
66702;SDS011;60933;46.398;-63.798;2023-10-13T15:51:45;3.60;;;0.80;;
66702;SDS011;60933;46.398;-63.798;2023-10-13T15:54:11;2.25;;;0.82;;
66702;SDS011;60933;46.398;-63.798;2023-10-13T15:56:44;2.60;;;0.77;;
66702;SDS011;60933;46.398;-63.798;2023-10-13T15:59:11;1.77;;;0.80;;